createdAt,value
2018-07-30T19:43:05.273Z,30.51
2018-07-30T19:43:45.973Z,30.37
2018-07-30T19:44:26.828Z,30.53
2018-07-30T19:45:07.526Z,30.31
2018-07-30T19:45:48.234Z,30.6
2018-07-30T19:46:29.070Z,30.47
2018-07-30T19:47:09.834Z,30.54
2018-07-30T19:47:50.614Z,30.49
2018-07-30T19:48:31.475Z,30.54
2018-07-30T19:49:12.197Z,30.6
2018-07-30T19:49:53.031Z,30.65
2018-07-30T19:50:33.786Z,30.67
2018-07-30T19:51:14.598Z,30.72
2018-07-30T19:51:55.383Z,30.73
2018-07-30T19:52:36.109Z,30.76
2018-07-30T19:53:16.964Z,30.77
2018-07-30T19:53:57.747Z,30.65
2018-07-30T19:54:38.566Z,30.67
2018-07-30T19:55:19.372Z,30.79
2018-07-30T19:56:00.099Z,30.75
2018-07-30T19:56:40.953Z,30.8
2018-07-30T19:57:21.760Z,30.75
2018-07-30T19:58:02.621Z,30.77
2018-07-30T19:58:43.403Z,30.61
2018-07-30T19:59:24.015Z,30.57
2018-07-30T20:00:04.832Z,30.49
2018-07-30T20:00:45.591Z,30.49
2018-07-30T20:01:26.417Z,30.37
2018-07-30T20:02:07.214Z,30.39
2018-07-30T20:02:47.994Z,30.39
2018-07-30T20:03:28.823Z,30.35
2018-07-30T20:04:09.614Z,30.34
2018-07-30T20:04:50.466Z,30.37
2018-07-30T20:05:31.232Z,30.38
2018-07-30T20:06:11.972Z,30.39
2018-07-30T20:06:52.750Z,30.38
2018-07-30T20:07:33.480Z,30.46
2018-07-30T20:08:14.375Z,30.38
2018-07-30T20:08:55.325Z,30.32
2018-07-30T20:09:36.113Z,30.39
2018-07-30T20:10:16.845Z,30.38
2018-07-30T20:10:57.593Z,30.35
2018-07-30T20:11:38.383Z,30.34
2018-07-30T20:12:19.203Z,30.37
2018-07-30T20:12:59.992Z,30.27
2018-07-30T20:13:40.698Z,30.42
2018-07-30T20:14:21.511Z,30.34
2018-07-30T20:15:02.392Z,30.32
2018-07-30T20:15:43.192Z,30.35
2018-07-30T20:16:23.980Z,30.34
2018-07-30T20:17:04.762Z,30.42
2018-07-30T20:17:45.416Z,30.35
2018-07-30T20:18:26.192Z,30.26
2018-07-30T20:19:07.122Z,30.31
2018-07-30T20:19:47.952Z,30.43
2018-07-30T20:20:28.752Z,30.46
2018-07-30T20:21:09.538Z,30.31
2018-07-30T20:21:50.341Z,30.16
2018-07-30T20:22:31.109Z,30.07
2018-07-30T20:23:11.996Z,30.04
2018-07-30T20:23:52.775Z,30.05
2018-07-30T20:24:33.575Z,30
2018-07-30T20:25:14.342Z,30.01
2018-07-30T20:25:55.224Z,30.02
2018-07-30T20:26:35.993Z,30.16
2018-07-30T20:27:16.776Z,30.29
2018-07-30T20:27:57.503Z,30.22
2018-07-30T20:28:38.236Z,30.29
2018-07-30T20:29:19.003Z,30.26
2018-07-30T20:29:59.788Z,30.23
2018-07-30T20:30:40.553Z,30.34
2018-07-30T20:31:21.291Z,30.27
2018-07-30T20:32:02.134Z,30.27
2018-07-30T20:35:52.635Z,30.34
2018-07-30T20:36:33.385Z,30.46
2018-07-30T20:37:14.137Z,30.29
2018-07-30T20:37:54.884Z,30.24
2018-07-30T20:38:35.687Z,30.23
2018-07-30T20:39:16.477Z,30.07
2018-07-30T20:39:57.245Z,30.02
2018-07-30T20:40:38.059Z,30
2018-07-30T20:41:18.854Z,29.94
2018-07-30T20:41:59.696Z,29.87
2018-07-30T20:42:40.476Z,29.9
2018-07-30T20:43:21.186Z,29.83
2018-07-30T20:44:01.956Z,29.94
2018-07-30T20:44:42.690Z,29.92
2018-07-30T20:45:23.541Z,29.82
2018-07-30T20:46:04.420Z,29.9
2018-07-30T20:46:45.266Z,29.82
2018-07-30T20:47:25.995Z,29.85
2018-07-30T20:48:06.744Z,29.89
2018-07-30T20:48:47.584Z,29.86
2018-07-30T20:49:28.384Z,29.85
2018-07-30T20:50:09.106Z,29.83
2018-07-30T20:50:49.844Z,29.86
2018-07-30T20:51:30.666Z,29.76
2018-07-30T20:52:11.434Z,29.76
2018-07-30T20:52:52.141Z,29.76
2018-07-30T20:53:32.960Z,29.68
2018-07-30T20:54:13.793Z,29.82
2018-07-30T20:54:54.640Z,29.71
2018-07-30T20:55:35.430Z,29.78
2018-07-30T20:56:16.156Z,29.79
2018-07-30T20:56:57.122Z,29.78
2018-07-30T20:57:37.942Z,29.82
2018-07-30T20:58:18.667Z,29.71
2018-07-30T20:58:59.411Z,29.82
2018-07-30T21:00:36.830Z,-40
2018-07-30T21:01:17.658Z,-39.49
2018-07-30T21:01:58.461Z,-39.49
2018-07-30T21:02:39.233Z,-39.49
2018-07-30T21:03:20.019Z,-39.49
2018-07-30T21:04:00.767Z,-39.49
2018-07-30T21:04:41.476Z,-39.49
2018-07-30T21:05:22.356Z,-39.49
2018-07-30T21:06:03.142Z,-39.49
2018-07-30T21:06:43.856Z,-39.49
2018-07-30T21:08:26.392Z,30.37
2018-07-30T21:09:07.212Z,30.27
2018-07-30T21:09:48.015Z,30.08
2018-07-30T21:10:28.773Z,29.97
2018-07-30T21:11:09.456Z,29.9
2018-07-30T21:11:50.217Z,29.87
2018-07-30T21:12:31.023Z,29.68
2018-07-30T21:13:11.888Z,29.7
2018-07-30T21:13:52.614Z,29.71
2018-07-30T21:14:33.438Z,29.68
2018-07-30T21:15:14.233Z,29.67
2018-07-30T21:15:55.045Z,29.68
2018-07-30T21:16:35.843Z,29.65
2018-07-30T21:17:16.602Z,29.65
2018-07-30T21:17:57.313Z,29.63
2018-07-30T21:18:38.157Z,29.7
2018-07-30T21:19:18.985Z,29.64
2018-07-30T21:20:00.343Z,29.65
2018-07-30T21:20:42.607Z,29.63
2018-07-30T21:21:23.343Z,29.64
2018-07-30T21:22:04.086Z,29.67
2018-07-30T21:22:45.095Z,29.65
2018-07-30T21:23:25.853Z,29.68
2018-07-30T21:24:06.595Z,29.58
2018-07-30T21:24:47.348Z,29.6
2018-07-30T21:25:28.143Z,29.57
2018-07-30T21:26:08.986Z,29.58
2018-07-30T21:26:49.937Z,29.57
2018-07-30T21:27:30.711Z,29.61
2018-07-30T21:28:11.685Z,29.57
2018-07-30T21:28:52.455Z,29.53
2018-07-30T21:29:33.294Z,29.51
2018-07-30T21:30:14.047Z,29.58
2018-07-30T21:30:55.058Z,29.63
2018-07-30T21:31:35.854Z,29.6
2018-07-30T21:32:16.628Z,29.63
2018-07-30T21:32:57.371Z,29.63
2018-07-30T21:33:38.112Z,29.68
2018-07-30T21:34:18.921Z,29.63
2018-07-30T21:34:59.795Z,29.61
2018-07-30T21:35:40.633Z,29.58
2018-07-30T21:36:21.444Z,29.58
2018-07-30T21:37:02.210Z,29.65
2018-07-30T21:37:42.948Z,29.7
2018-07-30T21:38:23.731Z,29.6
2018-07-30T21:39:04.660Z,29.63
2018-07-30T21:39:45.370Z,29.65
2018-07-30T21:40:26.123Z,29.53
2018-07-30T21:41:06.957Z,29.71
2018-07-30T21:41:47.796Z,29.61
2018-07-30T21:42:28.596Z,29.58
2018-07-30T21:43:09.347Z,29.57
2018-07-30T21:43:50.102Z,29.58
2018-07-30T21:44:30.792Z,29.7
2018-07-30T21:45:11.633Z,29.6
2018-07-30T21:45:52.412Z,29.6
2018-07-30T21:46:33.245Z,29.68
2018-07-30T21:47:14.024Z,29.58
2018-07-30T21:47:54.743Z,29.58
2018-07-30T21:48:35.600Z,29.55
2018-07-30T21:49:16.415Z,29.52
2018-07-30T21:49:57.167Z,29.64
2018-07-30T21:50:37.970Z,29.46
2018-07-30T21:51:18.747Z,29.57
2018-07-30T21:51:59.691Z,29.61
2018-07-30T21:52:40.519Z,29.53
2018-07-30T21:53:21.340Z,29.49
2018-07-30T21:54:02.150Z,29.52
2018-07-30T21:54:42.847Z,29.64
2018-07-30T21:55:23.596Z,29.52
2018-07-30T21:56:04.444Z,29.61
2018-07-30T21:56:45.223Z,29.53
2018-07-30T21:57:25.947Z,29.53
2018-07-30T21:58:06.774Z,29.57
2018-07-30T21:58:47.583Z,29.61
2018-07-30T21:59:28.436Z,29.57
2018-07-30T22:00:09.192Z,29.6
2018-07-30T22:00:50.006Z,29.57
2018-07-30T22:01:30.909Z,29.51
2018-07-30T22:02:11.721Z,29.6
2018-07-30T22:02:52.580Z,29.57
2018-07-30T22:03:33.311Z,29.55
2018-07-30T22:04:14.068Z,29.53
2018-07-30T22:04:54.934Z,29.55
2018-07-30T22:05:35.781Z,29.53
2018-07-30T22:06:16.444Z,29.6
2018-07-30T22:06:57.305Z,29.57
2018-07-30T22:07:38.115Z,29.49
2018-07-30T22:08:18.968Z,29.63
2018-07-30T22:08:59.712Z,29.57
2018-07-30T22:09:40.473Z,29.6
2018-07-30T22:10:21.261Z,29.53
2018-07-30T22:11:02.082Z,29.48
2018-07-30T22:11:42.900Z,29.49
2018-07-30T22:12:23.785Z,29.52
2018-07-30T22:13:04.580Z,29.48
2018-07-30T22:13:45.344Z,29.53
2018-07-30T22:14:26.146Z,29.45
2018-07-30T22:15:06.933Z,29.42
2018-07-30T22:15:48.713Z,29.51
2018-07-30T22:16:29.381Z,29.48
2018-07-30T22:17:10.128Z,29.45
2018-07-30T22:17:51.047Z,29.49
2018-07-30T22:18:31.858Z,29.46
2018-07-30T22:19:12.717Z,29.49
2018-07-30T22:19:53.457Z,29.48
2018-07-30T22:20:34.226Z,29.49
2018-07-30T22:21:15.075Z,29.39
2018-07-30T22:21:56.055Z,29.43
2018-07-30T22:22:36.878Z,29.43
2018-07-30T22:23:17.612Z,29.49
2018-07-30T22:23:58.410Z,29.43
2018-07-30T22:24:39.252Z,29.43
2018-07-30T22:25:20.119Z,29.45
2018-07-30T22:26:00.883Z,29.53
2018-07-30T22:26:41.692Z,29.45
2018-07-30T22:27:22.407Z,29.51
2018-07-30T22:28:03.232Z,29.41
2018-07-30T22:28:44.177Z,29.39
2018-07-30T22:29:24.998Z,29.41
2018-07-30T22:30:05.809Z,29.43
2018-07-30T22:30:46.592Z,29.43
2018-07-30T22:31:27.307Z,29.45
2018-07-30T22:32:08.257Z,29.49
2018-07-30T22:32:49.034Z,29.49
2018-07-30T22:33:29.774Z,29.42
2018-07-30T22:34:10.521Z,29.42
2018-07-30T22:34:51.302Z,29.39
2018-07-30T22:35:32.125Z,29.42
2018-07-30T22:36:12.887Z,29.42
2018-07-30T22:36:53.705Z,29.42
2018-07-30T22:37:34.566Z,29.46
2018-07-30T22:38:15.633Z,29.45
2018-07-30T22:38:56.441Z,29.45
2018-07-30T22:39:37.244Z,29.49
2018-07-30T22:40:18.007Z,29.45
2018-07-30T22:40:58.841Z,29.41
2018-07-30T22:41:39.601Z,29.53
2018-07-30T22:42:20.310Z,29.42
2018-07-30T22:43:01.028Z,29.46
2018-07-30T22:43:41.845Z,29.43
2018-07-30T22:44:22.680Z,29.48
2018-07-30T22:45:03.530Z,29.45
2018-07-30T22:45:44.332Z,29.51
2018-07-30T22:46:25.110Z,29.48
2018-07-30T22:47:05.895Z,29.45
2018-07-30T22:47:46.761Z,29.45
2018-07-30T22:48:27.587Z,29.41
2018-07-30T22:49:08.403Z,29.41
2018-07-30T22:49:49.127Z,29.43
2018-07-30T22:50:29.985Z,29.42
2018-07-30T22:51:10.780Z,29.36
2018-07-30T22:51:51.642Z,29.41
2018-07-30T22:52:32.371Z,29.36
2018-07-30T22:53:13.254Z,29.31
2018-07-30T22:53:54.038Z,29.34
2018-07-30T22:54:34.951Z,29.36
2018-07-30T22:55:16.023Z,29.41
2018-07-30T22:55:56.845Z,29.31
2018-07-30T22:56:37.941Z,29.34
2018-07-30T22:57:19.679Z,29.31
2018-07-30T22:58:01.129Z,29.3
2018-07-30T22:58:42.535Z,29.28
2018-07-30T22:59:23.966Z,29.26
2018-07-30T23:00:05.838Z,29.28
2018-07-30T23:00:47.268Z,29.23
2018-07-30T23:01:28.331Z,29.28
2018-07-30T23:02:09.826Z,29.28
2018-07-30T23:02:51.244Z,29.28
2018-07-30T23:03:32.207Z,29.3
2018-07-30T23:04:13.004Z,29.28
2018-07-30T23:04:53.781Z,29.31
2018-07-30T23:05:34.530Z,29.33
2018-07-30T23:06:15.281Z,29.34
2018-07-30T23:06:56.086Z,29.37
2018-07-30T23:07:36.806Z,29.36
2018-07-30T23:08:17.520Z,29.27
2018-07-30T23:08:58.240Z,29.33
2018-07-30T23:09:38.972Z,29.3
2018-07-30T23:10:19.751Z,29.31
2018-07-30T23:11:00.505Z,29.3
2018-07-30T23:11:41.241Z,29.3
2018-07-30T23:12:22.059Z,29.28
2018-07-30T23:13:02.844Z,29.31
2018-07-30T23:15:18.506Z,29.31
2018-07-30T23:15:59.282Z,29.28
2018-07-30T23:16:40.001Z,29.19
2018-07-30T23:17:20.735Z,29.26
2018-07-30T23:18:01.456Z,29.23
2018-07-30T23:18:42.224Z,29.34
2018-07-30T23:19:23.002Z,29.3
2018-07-30T23:20:03.776Z,29.19
2018-07-30T23:20:44.545Z,29.21
2018-07-30T23:21:25.287Z,29.21
2018-07-30T23:22:06.091Z,29.28
2018-07-30T23:22:46.848Z,29.24
2018-07-30T23:23:27.578Z,29.28
2018-07-30T23:24:08.307Z,29.27
2018-07-30T23:24:49.041Z,29.24
2018-07-30T23:25:29.819Z,29.21
2018-07-30T23:26:10.553Z,29.28
2018-07-30T23:26:51.275Z,29.33
2018-07-30T23:27:32.032Z,29.28
2018-07-30T23:28:12.815Z,29.26
2018-07-30T23:28:53.635Z,29.26
2018-07-30T23:29:34.399Z,29.18
2018-07-30T23:30:15.162Z,29.23
2018-07-30T23:30:55.951Z,29.24
2018-07-30T23:31:36.716Z,29.26
2018-07-30T23:32:17.465Z,29.16
2018-07-30T23:32:58.218Z,29.24
2018-07-30T23:33:39.025Z,29.26
2018-07-30T23:34:19.806Z,29.19
2018-07-30T23:35:00.565Z,29.15
2018-07-30T23:35:41.380Z,29.24
2018-07-30T23:36:22.093Z,29.27
2018-07-30T23:37:02.886Z,29.24
2018-07-30T23:37:43.541Z,29.23
2018-07-30T23:38:24.335Z,29.26
2018-07-30T23:39:05.103Z,29.21
2018-07-30T23:39:45.800Z,29.24
2018-07-30T23:40:26.568Z,29.24
2018-07-30T23:41:07.354Z,29.19
2018-07-30T23:41:48.159Z,29.26
2018-07-30T23:42:28.920Z,29.14
2018-07-30T23:43:09.628Z,29.16
2018-07-30T23:43:50.353Z,29.15
2018-07-30T23:44:31.107Z,29.18
2018-07-30T23:45:11.898Z,29.18
2018-07-30T23:45:52.666Z,29.21
2018-07-30T23:46:33.469Z,29.21
2018-07-30T23:47:14.221Z,29.23
2018-07-30T23:47:54.936Z,29.18
2018-07-30T23:48:35.777Z,29.24
2018-07-30T23:49:16.518Z,29.27
2018-07-30T23:49:57.307Z,29.24
2018-07-30T23:50:38.084Z,29.09
2018-07-30T23:51:18.919Z,29.18
2018-07-30T23:51:59.753Z,29.23
2018-07-30T23:52:40.600Z,29.19
2018-07-30T23:53:21.354Z,29.21
2018-07-30T23:54:02.127Z,29.23
2018-07-30T23:54:42.897Z,29.26
2018-07-30T23:55:23.737Z,29.26
2018-07-30T23:56:04.503Z,29.21
2018-07-30T23:56:45.226Z,29.14
2018-07-30T23:57:26.018Z,29.18
2018-07-30T23:58:06.856Z,29.16
2018-07-30T23:58:47.698Z,29.23
2018-07-30T23:59:28.515Z,29.18
